Delta Junction, Alaska
Current Conditions -  °F | °C
As of 11:53 PM on Saturday 22 Nov 2014 (Local Time) from PABI Reporting Station
Clear Clear  
Wind Chill: -7°   Ceiling: Unl
Heat Index: 10°   Visibility: 10mi
Dew Point:   Wind: 15mph
Humidity: 70%   Direction: 110°ESE
Pressure: 29.4"   Gusts: NA
Location:  64.04°N, 145.73°W
Report Text: PABI 230853Z AUTO 11013KT 10SM CLR M12/M17 A2940 RMK AO2 SLP995 T11221167 410941122 53008 TSNO
Loading
Personal Weather Stations






























Interactive Weather Map New forecast layout! Learn more

10-Day Weather Forecast

Advertisements
Track Severe Weather on mobile